Time;durP1;ratioP1;P1;durP2;ratioP2;P2;SDS_P1;SDS_P2;PMS_P1;PMS_P2;Temp;Humidity;BMP_temperature;BMP_pressure;BME280_temperature;BME280_humidity;BME280_pressure;Samples;Min_cycle;Max_cycle;Signal;HPM_P1;HPM_P2
2023/04/07 00:04:49;;;;;;;3.88;0.63;;;;;;;;;;20838176;28;20407;-66
2023/04/07 00:14:51;;;;;;;2.15;0.75;;;;;;;;;;20837993;28;20094;-66
2023/04/07 00:24:53;;;;;;;3.95;0.40;;;;;;;;;;20837385;28;20103;-66
2023/04/07 00:34:55;;;;;;;2.00;0.60;;;;;;;;;;20836412;28;20099;-66
2023/04/07 00:44:56;;;;;;;2.22;0.40;;;;;;;;;;20835521;28;20045;-65
2023/04/07 00:54:59;;;;;;;1.25;0.45;;;;;;;;;;20834738;28;20418;-66
2023/04/07 01:05:01;;;;;;;1.35;0.60;;;;;;;;;;20833840;28;20057;-66
2023/04/07 01:15:06;;;;;;;3.30;0.60;;;;;;;;;;20832250;28;20053;-66
2023/04/07 01:25:22;;;;;;;2.47;0.70;;;;;;;;;;20831644;28;20087;-66
2023/04/07 01:35:25;;;;;;;0.80;0.45;;;;;;;;;;20832375;28;20453;-65
2023/04/07 01:45:27;;;;;;;0.85;0.57;;;;;;;;;;20830316;28;20093;-66
2023/04/07 01:55:29;;;;;;;3.53;0.57;;;;;;;;;;20831261;28;20053;-66
2023/04/07 02:05:32;;;;;;;2.63;0.40;;;;;;;;;;20830721;28;20453;-65
2023/04/07 02:15:34;;;;;;;1.00;0.40;;;;;;;;;;20830052;28;20061;-65
2023/04/07 02:25:39;;;;;;;1.27;0.55;;;;;;;;;;20836696;28;20041;-66
2023/04/07 02:35:40;;;;;;;1.67;0.75;;;;;;;;;;20845624;28;20096;-65
2023/04/07 02:45:42;;;;;;;1.63;0.80;;;;;;;;;;20844846;28;20046;-65
2023/04/07 02:55:44;;;;;;;1.63;0.50;;;;;;;;;;20844129;28;20050;-65
2023/04/07 03:05:46;;;;;;;2.10;0.60;;;;;;;;;;20843336;28;20050;-65
2023/04/07 03:15:48;;;;;;;1.83;0.57;;;;;;;;;;20842209;28;20049;-65
2023/04/07 03:25:49;;;;;;;1.30;0.50;;;;;;;;;;20841905;28;20446;-64
2023/04/07 03:35:51;;;;;;;3.55;0.73;;;;;;;;;;20839007;28;20053;-65
2023/04/07 03:45:53;;;;;;;2.95;0.52;;;;;;;;;;20839455;28;20080;-66
2023/04/07 03:55:55;;;;;;;3.10;0.77;;;;;;;;;;20838538;28;20144;-66
2023/04/07 04:05:57;;;;;;;2.85;0.50;;;;;;;;;;20839202;28;20095;-65
2023/04/07 04:15:58;;;;;;;3.55;0.82;;;;;;;;;;20838086;28;20049;-66
2023/04/07 04:26:02;;;;;;;3.15;1.33;;;;;;;;;;20836442;28;20053;-65
2023/04/07 04:36:04;;;;;;;2.83;0.82;;;;;;;;;;20836592;28;20411;-65
2023/04/07 04:46:06;;;;;;;3.95;0.73;;;;;;;;;;20835687;28;20049;-66
2023/04/07 04:56:08;;;;;;;1.23;0.63;;;;;;;;;;20835265;28;20054;-64
2023/04/07 05:06:10;;;;;;;1.58;0.77;;;;;;;;;;20833353;28;20045;-65
2023/04/07 05:16:11;;;;;;;1.88;0.70;;;;;;;;;;20833186;28;20053;-65
2023/04/07 05:26:13;;;;;;;2.25;0.95;;;;;;;;;;20831856;28;20064;-65
2023/04/07 05:36:15;;;;;;;1.63;0.50;;;;;;;;;;20831220;28;20045;-65
2023/04/07 05:46:17;;;;;;;2.38;0.80;;;;;;;;;;20831965;28;20042;-66
2023/04/07 05:56:18;;;;;;;2.42;0.80;;;;;;;;;;20831496;28;20050;-65
2023/04/07 06:06:20;;;;;;;2.05;0.60;;;;;;;;;;20847938;28;20056;-65
2023/04/07 06:16:22;;;;;;;1.98;0.60;;;;;;;;;;20846933;28;20049;-64
2023/04/07 06:26:24;;;;;;;1.73;0.65;;;;;;;;;;20846940;28;20065;-65
2023/04/07 06:36:26;;;;;;;5.35;0.57;;;;;;;;;;20845709;28;20049;-65
2023/04/07 06:46:28;;;;;;;5.88;1.40;;;;;;;;;;20843974;28;20049;-66
2023/04/07 06:56:29;;;;;;;1.17;0.70;;;;;;;;;;20843704;28;20135;-65
2023/04/07 07:06:31;;;;;;;2.00;0.60;;;;;;;;;;20842874;28;20060;-65
2023/04/07 07:16:33;;;;;;;4.97;0.73;;;;;;;;;;20842165;28;20060;-65
2023/04/07 07:26:35;;;;;;;3.30;0.98;;;;;;;;;;20841647;28;20053;-66
2023/04/07 07:36:37;;;;;;;3.58;0.73;;;;;;;;;;20839378;28;20065;-66
2023/04/07 07:46:38;;;;;;;2.38;0.85;;;;;;;;;;20839372;28;20501;-66
2023/04/07 07:56:40;;;;;;;2.35;0.90;;;;;;;;;;20839001;28;20426;-65
2023/04/07 08:06:42;;;;;;;3.20;1.00;;;;;;;;;;20838068;28;20077;-66
2023/04/07 08:16:44;;;;;;;5.28;0.90;;;;;;;;;;20836444;28;20119;-68
2023/04/07 08:26:46;;;;;;;2.17;0.95;;;;;;;;;;20836468;28;20542;-66
2023/04/07 08:36:47;;;;;;;6.53;0.90;;;;;;;;;;20836683;28;20045;-66
2023/04/07 08:46:50;;;;;;;7.68;1.20;;;;;;;;;;20835391;28;20176;-66
2023/04/07 08:56:52;;;;;;;3.83;1.65;;;;;;;;;;20833435;28;20053;-67
2023/04/07 09:06:54;;;;;;;2.03;0.70;;;;;;;;;;20832082;28;20060;-66
2023/04/07 09:16:56;;;;;;;3.03;0.63;;;;;;;;;;20832748;28;20049;-65
2023/04/07 09:27:12;;;;;;;1.45;0.63;;;;;;;;;;20831235;28;20049;-65
2023/04/07 09:37:21;;;;;;;4.20;0.80;;;;;;;;;;20831484;28;20099;-65
2023/04/07 09:47:30;;;;;;;1.90;0.68;;;;;;;;;;20832080;28;20065;-65
2023/04/07 09:57:32;;;;;;;3.85;0.90;;;;;;;;;;20831655;28;20487;-65
2023/04/07 10:07:34;;;;;;;1.85;0.95;;;;;;;;;;20829805;28;20110;-65
2023/04/07 10:17:36;;;;;;;3.53;0.75;;;;;;;;;;20830249;28;20524;-66
2023/04/07 10:27:55;;;;;;;1.08;0.47;;;;;;;;;;20830381;28;20135;-65
2023/04/07 10:38:13;;;;;;;1.75;0.77;;;;;;;;;;20829945;28;20415;-66
2023/04/07 10:48:16;;;;;;;3.58;0.52;;;;;;;;;;20838426;28;20051;-67
2023/04/07 10:58:28;;;;;;;4.00;0.70;;;;;;;;;;20844775;28;20053;-65
2023/04/07 11:08:32;;;;;;;1.15;0.60;;;;;;;;;;20843953;28;20476;-66
2023/04/07 11:18:35;;;;;;;4.20;0.70;;;;;;;;;;20841528;28;20061;-66
2023/04/07 11:28:47;;;;;;;3.88;0.40;;;;;;;;;;20840876;28;20053;-66
2023/04/07 11:38:49;;;;;;;1.40;0.50;;;;;;;;;;20840906;28;20045;-66
2023/04/07 11:48:51;;;;;;;1.73;1.05;;;;;;;;;;20840662;28;20052;-65
2023/04/07 11:58:54;;;;;;;3.47;0.95;;;;;;;;;;20838512;28;20045;-66
2023/04/07 12:08:56;;;;;;;4.40;0.70;;;;;;;;;;20838100;28;20103;-67
2023/04/07 12:18:58;;;;;;;3.65;1.13;;;;;;;;;;20836697;28;20096;-65
2023/04/07 12:29:03;;;;;;;2.50;0.63;;;;;;;;;;20837333;28;20057;-68
2023/04/07 12:39:05;;;;;;;1.73;0.60;;;;;;;;;;20836743;28;20056;-66
2023/04/07 12:49:07;;;;;;;2.75;0.68;;;;;;;;;;20835647;28;20462;-66
2023/04/07 12:59:08;;;;;;;3.85;0.63;;;;;;;;;;20833338;28;20103;-66
2023/04/07 13:09:10;;;;;;;1.77;0.57;;;;;;;;;;20833936;28;20128;-66
2023/04/07 13:19:12;;;;;;;2.38;0.73;;;;;;;;;;20832826;28;20457;-66
2023/04/07 13:29:14;;;;;;;2.28;0.60;;;;;;;;;;20833133;28;20483;-67
2023/04/07 13:39:15;;;;;;;2.85;0.60;;;;;;;;;;20832381;28;20045;-65
2023/04/07 13:49:17;;;;;;;1.75;0.60;;;;;;;;;;20831985;28;20145;-66
2023/04/07 13:59:18;;;;;;;5.85;1.35;;;;;;;;;;20830089;28;20046;-67
2023/04/07 14:09:20;;;;;;;2.05;0.70;;;;;;;;;;20829763;28;20053;-67
2023/04/07 14:19:22;;;;;;;2.97;0.85;;;;;;;;;;20832473;28;20148;-66
2023/04/07 14:29:25;;;;;;;2.28;0.40;;;;;;;;;;20845304;28;20045;-66
2023/04/07 14:39:27;;;;;;;4.68;0.93;;;;;;;;;;20845856;28;20041;-68
2023/04/07 14:49:29;;;;;;;2.08;0.60;;;;;;;;;;20845326;28;20501;-67
2023/04/07 14:59:31;;;;;;;1.08;0.32;;;;;;;;;;20843076;28;20045;-66
2023/04/07 15:09:32;;;;;;;1.80;0.73;;;;;;;;;;20841967;28;20160;-66
2023/04/07 15:19:34;;;;;;;0.85;0.40;;;;;;;;;;20841916;28;20079;-67
2023/04/07 15:29:37;;;;;;;1.90;0.60;;;;;;;;;;20841041;28;20136;-68
2023/04/07 15:39:39;;;;;;;2.53;0.80;;;;;;;;;;20839943;28;20045;-67
2023/04/07 15:49:41;;;;;;;3.33;0.63;;;;;;;;;;20838533;28;20049;-67
2023/04/07 15:59:42;;;;;;;3.75;0.68;;;;;;;;;;20838976;28;20104;-66
2023/04/07 16:09:44;;;;;;;3.58;0.65;;;;;;;;;;20838694;28;20491;-66
2023/04/07 16:19:45;;;;;;;1.38;0.55;;;;;;;;;;20836868;28;20053;-66
2023/04/07 16:29:47;;;;;;;2.90;0.52;;;;;;;;;;20837128;28;20077;-67
2023/04/07 16:39:49;;;;;;;1.98;0.40;;;;;;;;;;20836272;28;20046;-66
2023/04/07 16:49:50;;;;;;;1.52;0.75;;;;;;;;;;20835293;28;20045;-66
2023/04/07 16:59:52;;;;;;;4.00;0.60;;;;;;;;;;20833416;28;20045;-65
2023/04/07 17:09:53;;;;;;;3.00;0.30;;;;;;;;;;20834259;28;20589;-66
2023/04/07 17:19:56;;;;;;;1.45;0.60;;;;;;;;;;20832307;28;20049;-66
2023/04/07 17:29:58;;;;;;;3.90;0.77;;;;;;;;;;20831840;28;20121;-66
2023/04/07 17:40:00;;;;;;;2.30;0.57;;;;;;;;;;20831585;28;20052;-67
2023/04/07 17:50:03;;;;;;;4.28;0.60;;;;;;;;;;20830598;28;20065;-67
2023/04/07 18:00:05;;;;;;;1.23;0.60;;;;;;;;;;20829637;28;20042;-66
2023/04/07 18:10:08;;;;;;;2.33;0.80;;;;;;;;;;20830857;28;20048;-66
2023/04/07 18:20:10;;;;;;;2.22;0.60;;;;;;;;;;20828420;28;20049;-66
2023/04/07 18:30:12;;;;;;;2.40;0.85;;;;;;;;;;20829822;28;20063;-67
2023/04/07 18:40:13;;;;;;;4.60;0.80;;;;;;;;;;20829355;28;20049;-66
2023/04/07 18:50:15;;;;;;;3.00;1.00;;;;;;;;;;20829384;28;20056;-67
2023/04/07 19:00:16;;;;;;;2.20;1.38;;;;;;;;;;20827673;28;20151;-67
2023/04/07 19:10:18;;;;;;;6.80;1.83;;;;;;;;;;20838175;28;20053;-65
2023/04/07 19:20:20;;;;;;;4.70;1.80;;;;;;;;;;20841055;28;20052;-67
2023/04/07 19:30:21;;;;;;;5.45;2.13;;;;;;;;;;20840113;28;20049;-65
2023/04/07 19:40:23;;;;;;;4.43;1.65;;;;;;;;;;20840076;28;20041;-66
2023/04/07 19:50:27;;;;;;;4.78;2.03;;;;;;;;;;20838930;28;20052;-66
2023/04/07 20:00:28;;;;;;;3.88;1.80;;;;;;;;;;20838082;28;20403;-66
2023/04/07 20:10:30;;;;;;;7.45;3.67;;;;;;;;;;20837106;28;20132;-67
2023/04/07 20:20:32;;;;;;;3.58;2.00;;;;;;;;;;20834957;28;20060;-66
2023/04/07 20:30:33;;;;;;;5.28;2.38;;;;;;;;;;20836616;28;20046;-66
2023/04/07 20:40:35;;;;;;;7.10;2.03;;;;;;;;;;20834458;28;20046;-66
2023/04/07 20:50:37;;;;;;;8.88;3.35;;;;;;;;;;20835726;28;20045;-66
2023/04/07 21:00:39;;;;;;;7.72;3.70;;;;;;;;;;20833276;28;20116;-67
2023/04/07 21:10:41;;;;;;;6.10;2.78;;;;;;;;;;20832140;28;20056;-66
2023/04/07 21:20:42;;;;;;;7.50;2.75;;;;;;;;;;20830917;28;20489;-67
2023/04/07 21:30:44;;;;;;;4.78;1.45;;;;;;;;;;20829944;28;20057;-66
2023/04/07 21:40:46;;;;;;;4.05;1.55;;;;;;;;;;20830651;28;20501;-66
2023/04/07 21:50:47;;;;;;;9.40;2.95;;;;;;;;;;20828865;28;20102;-67
2023/04/07 22:00:49;;;;;;;6.75;2.67;;;;;;;;;;20829784;28;20052;-65
2023/04/07 22:10:51;;;;;;;9.57;2.25;;;;;;;;;;20829801;28;20057;-66
2023/04/07 22:20:53;;;;;;;8.27;2.35;;;;;;;;;;20827733;28;20053;-65
2023/04/07 22:30:54;;;;;;;7.10;2.13;;;;;;;;;;20828155;28;20099;-67
2023/04/07 22:40:56;;;;;;;6.95;2.00;;;;;;;;;;20832741;28;20132;-65
2023/04/07 22:50:57;;;;;;;7.75;1.85;;;;;;;;;;20845264;28;20045;-65
2023/04/07 23:00:59;;;;;;;3.88;1.50;;;;;;;;;;20843447;28;20049;-65
2023/04/07 23:11:01;;;;;;;8.00;1.48;;;;;;;;;;20842744;28;20088;-66
2023/04/07 23:21:02;;;;;;;5.72;1.42;;;;;;;;;;20840782;28;20063;-65
2023/04/07 23:31:05;;;;;;;5.40;2.15;;;;;;;;;;20840708;28;20049;-65
2023/04/07 23:41:07;;;;;;;3.75;1.48;;;;;;;;;;20839824;28;20059;-66
2023/04/07 23:51:09;;;;;;;4.70;1.80;;;;;;;;;;20838580;28;20042;-66
